sensor_id;sensor_type;location;lat;lon;timestamp;temperature;humidity
44723;DHT22;30451;48.638;10.624;2023-04-01T00:00:45;22.90;46.30
44723;DHT22;30451;48.638;10.624;2023-04-01T00:03:11;22.90;46.30
44723;DHT22;30451;48.638;10.624;2023-04-01T00:05:37;22.90;46.80
44723;DHT22;30451;48.638;10.624;2023-04-01T00:08:02;22.90;46.30
44723;DHT22;30451;48.638;10.624;2023-04-01T00:10:28;22.80;46.20
44723;DHT22;30451;48.638;10.624;2023-04-01T00:12:54;22.80;46.30
44723;DHT22;30451;48.638;10.624;2023-04-01T00:15:19;22.80;46.30
44723;DHT22;30451;48.638;10.624;2023-04-01T00:17:46;22.80;46.30
44723;DHT22;30451;48.638;10.624;2023-04-01T00:20:12;22.80;46.30
44723;DHT22;30451;48.638;10.624;2023-04-01T00:22:37;22.80;46.30
44723;DHT22;30451;48.638;10.624;2023-04-01T00:25:04;22.70;46.30
44723;DHT22;30451;48.638;10.624;2023-04-01T00:27:30;22.70;46.30
44723;DHT22;30451;48.638;10.624;2023-04-01T00:29:55;22.70;46.80
44723;DHT22;30451;48.638;10.624;2023-04-01T00:32:21;22.70;46.30
44723;DHT22;30451;48.638;10.624;2023-04-01T00:34:50;22.70;46.40
44723;DHT22;30451;48.638;10.624;2023-04-01T00:37:17;22.70;46.30
44723;DHT22;30451;48.638;10.624;2023-04-01T00:39:42;22.70;46.80
44723;DHT22;30451;48.638;10.624;2023-04-01T00:42:10;22.70;46.40
44723;DHT22;30451;48.638;10.624;2023-04-01T00:44:37;22.60;46.40
44723;DHT22;30451;48.638;10.624;2023-04-01T00:47:03;22.60;46.40
44723;DHT22;30451;48.638;10.624;2023-04-01T00:49:36;22.60;46.40
44723;DHT22;30451;48.638;10.624;2023-04-01T00:52:04;22.60;46.40
44723;DHT22;30451;48.638;10.624;2023-04-01T00:54:31;22.50;46.40
44723;DHT22;30451;48.638;10.624;2023-04-01T00:57:04;22.50;46.40
44723;DHT22;30451;48.638;10.624;2023-04-01T00:59:34;22.50;46.40
44723;DHT22;30451;48.638;10.624;2023-04-01T01:02:06;22.50;46.40
44723;DHT22;30451;48.638;10.624;2023-04-01T01:04:34;22.50;47.00
44723;DHT22;30451;48.638;10.624;2023-04-01T01:09:47;22.40;46.40
44723;DHT22;30451;48.638;10.624;2023-04-01T01:12:44;22.40;46.50
44723;DHT22;30451;48.638;10.624;2023-04-01T01:36:31;22.20;46.60
44723;DHT22;30451;48.638;10.624;2023-04-01T01:39:02;22.30;47.20
44723;DHT22;30451;48.638;10.624;2023-04-01T01:41:29;22.20;47.10
44723;DHT22;30451;48.638;10.624;2023-04-01T01:43:56;22.20;46.70
44723;DHT22;30451;48.638;10.624;2023-04-01T01:46:26;22.20;46.60
44723;DHT22;30451;48.638;10.624;2023-04-01T01:48:54;22.20;46.70
44723;DHT22;30451;48.638;10.624;2023-04-01T01:51:21;22.20;46.70
44723;DHT22;30451;48.638;10.624;2023-04-01T01:53:48;22.20;46.70
44723;DHT22;30451;48.638;10.624;2023-04-01T01:56:13;22.20;46.70
44723;DHT22;30451;48.638;10.624;2023-04-01T01:58:47;22.10;46.70
44723;DHT22;30451;48.638;10.624;2023-04-01T02:01:19;22.10;46.70
44723;DHT22;30451;48.638;10.624;2023-04-01T02:03:45;22.10;46.70
44723;DHT22;30451;48.638;10.624;2023-04-01T02:06:15;22.10;46.80
44723;DHT22;30451;48.638;10.624;2023-04-01T02:08:47;22.10;47.30
44723;DHT22;30451;48.638;10.624;2023-04-01T02:11:19;22.10;46.80
44723;DHT22;30451;48.638;10.624;2023-04-01T02:14:07;22.10;46.80
44723;DHT22;30451;48.638;10.624;2023-04-01T02:16:40;22.10;46.80
44723;DHT22;30451;48.638;10.624;2023-04-01T02:19:10;22.00;46.70
44723;DHT22;30451;48.638;10.624;2023-04-01T02:21:38;22.00;46.70
44723;DHT22;30451;48.638;10.624;2023-04-01T02:24:08;22.00;46.70
44723;DHT22;30451;48.638;10.624;2023-04-01T02:26:35;22.00;46.80
44723;DHT22;30451;48.638;10.624;2023-04-01T02:29:01;22.00;46.70
44723;DHT22;30451;48.638;10.624;2023-04-01T02:31:29;22.00;46.70
44723;DHT22;30451;48.638;10.624;2023-04-01T02:33:56;22.00;46.70
44723;DHT22;30451;48.638;10.624;2023-04-01T02:36:22;22.00;46.80
44723;DHT22;30451;48.638;10.624;2023-04-01T02:38:49;21.90;46.80
44723;DHT22;30451;48.638;10.624;2023-04-01T02:41:16;22.00;46.90
44723;DHT22;30451;48.638;10.624;2023-04-01T02:43:42;21.90;46.90
44723;DHT22;30451;48.638;10.624;2023-04-01T02:46:07;21.90;46.80
44723;DHT22;30451;48.638;10.624;2023-04-01T02:48:33;21.90;46.80
44723;DHT22;30451;48.638;10.624;2023-04-01T02:50:59;21.90;46.90
44723;DHT22;30451;48.638;10.624;2023-04-01T02:53:24;21.90;46.80
44723;DHT22;30451;48.638;10.624;2023-04-01T02:55:50;21.90;46.80
44723;DHT22;30451;48.638;10.624;2023-04-01T02:58:17;21.90;46.80
44723;DHT22;30451;48.638;10.624;2023-04-01T03:00:43;21.80;46.80
44723;DHT22;30451;48.638;10.624;2023-04-01T03:03:11;21.80;46.80
44723;DHT22;30451;48.638;10.624;2023-04-01T03:05:39;21.80;46.80
44723;DHT22;30451;48.638;10.624;2023-04-01T03:08:05;21.80;46.80
44723;DHT22;30451;48.638;10.624;2023-04-01T03:10:31;21.80;46.80
44723;DHT22;30451;48.638;10.624;2023-04-01T03:12:57;21.80;46.90
44723;DHT22;30451;48.638;10.624;2023-04-01T03:15:22;21.80;46.90
44723;DHT22;30451;48.638;10.624;2023-04-01T03:17:48;21.80;46.90
44723;DHT22;30451;48.638;10.624;2023-04-01T03:20:15;21.80;46.80
44723;DHT22;30451;48.638;10.624;2023-04-01T03:22:41;21.80;46.80
44723;DHT22;30451;48.638;10.624;2023-04-01T03:25:07;21.70;46.70
44723;DHT22;30451;48.638;10.624;2023-04-01T03:27:34;21.70;46.80
44723;DHT22;30451;48.638;10.624;2023-04-01T03:30:01;21.70;46.80
44723;DHT22;30451;48.638;10.624;2023-04-01T03:32:27;21.70;46.70
44723;DHT22;30451;48.638;10.624;2023-04-01T03:34:53;21.70;46.70
44723;DHT22;30451;48.638;10.624;2023-04-01T03:37:18;21.70;46.70
44723;DHT22;30451;48.638;10.624;2023-04-01T03:39:44;21.70;46.70
44723;DHT22;30451;48.638;10.624;2023-04-01T03:42:11;21.70;46.70
44723;DHT22;30451;48.638;10.624;2023-04-01T03:44:36;21.70;46.70
44723;DHT22;30451;48.638;10.624;2023-04-01T03:47:02;21.70;46.70
44723;DHT22;30451;48.638;10.624;2023-04-01T03:49:27;21.70;46.80
44723;DHT22;30451;48.638;10.624;2023-04-01T03:51:53;21.70;46.70
44723;DHT22;30451;48.638;10.624;2023-04-01T03:54:19;21.70;46.80
44723;DHT22;30451;48.638;10.624;2023-04-01T03:56:46;21.60;46.70
44723;DHT22;30451;48.638;10.624;2023-04-01T03:59:12;21.60;46.70
44723;DHT22;30451;48.638;10.624;2023-04-01T04:01:38;21.60;46.80
44723;DHT22;30451;48.638;10.624;2023-04-01T04:04:03;21.60;46.80
44723;DHT22;30451;48.638;10.624;2023-04-01T04:06:30;21.60;46.80
44723;DHT22;30451;48.638;10.624;2023-04-01T04:08:56;21.60;47.30
44723;DHT22;30451;48.638;10.624;2023-04-01T04:11:22;21.60;46.80
44723;DHT22;30451;48.638;10.624;2023-04-01T04:13:48;21.60;46.80
44723;DHT22;30451;48.638;10.624;2023-04-01T04:16:15;21.60;46.80
44723;DHT22;30451;48.638;10.624;2023-04-01T04:18:41;21.60;46.70
44723;DHT22;30451;48.638;10.624;2023-04-01T04:21:06;21.60;46.70
44723;DHT22;30451;48.638;10.624;2023-04-01T04:23:32;21.60;46.70
44723;DHT22;30451;48.638;10.624;2023-04-01T04:26:06;21.60;47.00
44723;DHT22;30451;48.638;10.624;2023-04-01T04:28:32;21.50;46.70
44723;DHT22;30451;48.638;10.624;2023-04-01T04:30:58;21.60;46.70
44723;DHT22;30451;48.638;10.624;2023-04-01T04:33:24;21.50;46.60
44723;DHT22;30451;48.638;10.624;2023-04-01T04:35:55;21.50;46.70
44723;DHT22;30451;48.638;10.624;2023-04-01T04:38:20;21.50;46.70
44723;DHT22;30451;48.638;10.624;2023-04-01T04:40:46;21.50;46.70
44723;DHT22;30451;48.638;10.624;2023-04-01T04:43:13;21.50;46.70
44723;DHT22;30451;48.638;10.624;2023-04-01T04:45:39;21.50;46.80
44723;DHT22;30451;48.638;10.624;2023-04-01T04:48:07;21.50;46.80
44723;DHT22;30451;48.638;10.624;2023-04-01T04:50:33;21.50;46.70
44723;DHT22;30451;48.638;10.624;2023-04-01T04:52:59;21.40;46.60
44723;DHT22;30451;48.638;10.624;2023-04-01T04:55:24;21.40;46.50
44723;DHT22;30451;48.638;10.624;2023-04-01T04:57:50;21.50;46.70
44723;DHT22;30451;48.638;10.624;2023-04-01T05:00:16;21.40;46.60
44723;DHT22;30451;48.638;10.624;2023-04-01T05:02:41;21.40;47.10
44723;DHT22;30451;48.638;10.624;2023-04-01T05:05:07;21.40;46.60
44723;DHT22;30451;48.638;10.624;2023-04-01T05:07:33;21.40;46.70
44723;DHT22;30451;48.638;10.624;2023-04-01T05:09:59;21.40;47.20
44723;DHT22;30451;48.638;10.624;2023-04-01T05:12:25;21.40;46.70
44723;DHT22;30451;48.638;10.624;2023-04-01T05:14:51;21.40;46.70
44723;DHT22;30451;48.638;10.624;2023-04-01T05:17:16;21.40;46.70
44723;DHT22;30451;48.638;10.624;2023-04-01T05:19:42;21.40;46.70
44723;DHT22;30451;48.638;10.624;2023-04-01T05:22:08;21.40;46.70
44723;DHT22;30451;48.638;10.624;2023-04-01T05:24:33;21.40;46.70
44723;DHT22;30451;48.638;10.624;2023-04-01T05:26:59;21.40;46.70
44723;DHT22;30451;48.638;10.624;2023-04-01T05:29:26;21.40;46.60
44723;DHT22;30451;48.638;10.624;2023-04-01T05:31:52;21.30;46.60
44723;DHT22;30451;48.638;10.624;2023-04-01T05:34:17;21.30;46.60
44723;DHT22;30451;48.638;10.624;2023-04-01T05:36:44;21.30;46.60
44723;DHT22;30451;48.638;10.624;2023-04-01T05:39:09;21.30;46.60
44723;DHT22;30451;48.638;10.624;2023-04-01T05:41:36;21.30;46.70
44723;DHT22;30451;48.638;10.624;2023-04-01T05:44:02;21.30;46.70
44723;DHT22;30451;48.638;10.624;2023-04-01T05:46:28;21.30;46.70
44723;DHT22;30451;48.638;10.624;2023-04-01T05:48:54;21.30;46.70
44723;DHT22;30451;48.638;10.624;2023-04-01T05:51:20;21.30;46.70
44723;DHT22;30451;48.638;10.624;2023-04-01T05:53:46;21.30;46.70
44723;DHT22;30451;48.638;10.624;2023-04-01T05:56:11;21.30;47.30
44723;DHT22;30451;48.638;10.624;2023-04-01T05:58:38;21.30;46.70
44723;DHT22;30451;48.638;10.624;2023-04-01T06:01:09;21.30;46.70
44723;DHT22;30451;48.638;10.624;2023-04-01T06:03:35;21.30;46.80
44723;DHT22;30451;48.638;10.624;2023-04-01T06:06:01;21.20;46.70
44723;DHT22;30451;48.638;10.624;2023-04-01T06:08:29;21.20;46.80
44723;DHT22;30451;48.638;10.624;2023-04-01T06:13:58;21.20;46.70
44723;DHT22;30451;48.638;10.624;2023-04-01T06:21:41;21.20;46.70
44723;DHT22;30451;48.638;10.624;2023-04-01T06:27:32;21.20;46.50
44723;DHT22;30451;48.638;10.624;2023-04-01T06:35:38;21.20;46.30
44723;DHT22;30451;48.638;10.624;2023-04-01T06:44:14;21.10;46.10
44723;DHT22;30451;48.638;10.624;2023-04-01T06:46:47;21.10;46.00
44723;DHT22;30451;48.638;10.624;2023-04-01T06:52:18;21.10;46.10
44723;DHT22;30451;48.638;10.624;2023-04-01T06:54:48;21.10;46.00
44723;DHT22;30451;48.638;10.624;2023-04-01T07:00:02;21.10;46.00
44723;DHT22;30451;48.638;10.624;2023-04-01T07:02:48;21.10;45.90
44723;DHT22;30451;48.638;10.624;2023-04-01T07:05:19;21.10;45.80
44723;DHT22;30451;48.638;10.624;2023-04-01T07:07:48;21.10;45.90
44723;DHT22;30451;48.638;10.624;2023-04-01T07:10:45;21.10;46.00
44723;DHT22;30451;48.638;10.624;2023-04-01T07:13:19;21.10;45.90
44723;DHT22;30451;48.638;10.624;2023-04-01T07:16:03;21.10;45.90
44723;DHT22;30451;48.638;10.624;2023-04-01T07:18:42;21.10;45.80
44723;DHT22;30451;48.638;10.624;2023-04-01T07:21:36;21.00;45.80
44723;DHT22;30451;48.638;10.624;2023-04-01T07:24:33;21.00;45.80
44723;DHT22;30451;48.638;10.624;2023-04-01T07:26:59;21.10;45.80
44723;DHT22;30451;48.638;10.624;2023-04-01T07:29:26;21.00;45.80
44723;DHT22;30451;48.638;10.624;2023-04-01T07:34:28;21.00;45.80
44723;DHT22;30451;48.638;10.624;2023-04-01T07:44:59;21.00;45.90
44723;DHT22;30451;48.638;10.624;2023-04-01T07:56:33;21.00;46.00
44723;DHT22;30451;48.638;10.624;2023-04-01T08:07:07;21.00;46.10
44723;DHT22;30451;48.638;10.624;2023-04-01T08:09:49;20.90;46.00
44723;DHT22;30451;48.638;10.624;2023-04-01T08:15:11;21.00;46.10
44723;DHT22;30451;48.638;10.624;2023-04-01T08:17:51;21.00;46.20
44723;DHT22;30451;48.638;10.624;2023-04-01T08:23:17;20.90;46.20
44723;DHT22;30451;48.638;10.624;2023-04-01T08:25:54;20.90;46.10
44723;DHT22;30451;48.638;10.624;2023-04-01T08:31:08;20.90;46.20
44723;DHT22;30451;48.638;10.624;2023-04-01T08:33:36;20.90;46.20
44723;DHT22;30451;48.638;10.624;2023-04-01T08:36:56;20.90;46.20
44723;DHT22;30451;48.638;10.624;2023-04-01T08:39:14;20.90;46.20
44723;DHT22;30451;48.638;10.624;2023-04-01T08:41:58;20.90;46.20
44723;DHT22;30451;48.638;10.624;2023-04-01T09:08:14;20.90;46.40
44723;DHT22;30451;48.638;10.624;2023-04-01T09:15:37;20.90;46.40
44723;DHT22;30451;48.638;10.624;2023-04-01T09:27:14;20.80;46.40
44723;DHT22;30451;48.638;10.624;2023-04-01T09:29:51;20.90;46.50
44723;DHT22;30451;48.638;10.624;2023-04-01T09:38:18;20.90;46.60
44723;DHT22;30451;48.638;10.624;2023-04-01T09:40:52;20.80;46.50
44723;DHT22;30451;48.638;10.624;2023-04-01T09:43:39;20.80;46.60
44723;DHT22;30451;48.638;10.624;2023-04-01T09:52:31;20.90;46.70
44723;DHT22;30451;48.638;10.624;2023-04-01T09:58:18;20.80;47.20
44723;DHT22;30451;48.638;10.624;2023-04-01T10:12:46;20.80;46.80
44723;DHT22;30451;48.638;10.624;2023-04-01T10:21:20;20.80;47.50
44723;DHT22;30451;48.638;10.624;2023-04-01T10:24:19;20.80;47.20
44723;DHT22;30451;48.638;10.624;2023-04-01T10:51:42;20.80;47.40
44723;DHT22;30451;48.638;10.624;2023-04-01T11:14:03;20.80;47.50
44723;DHT22;30451;48.638;10.624;2023-04-01T11:30:44;20.80;48.10
44723;DHT22;30451;48.638;10.624;2023-04-01T11:33:41;20.90;48.30
44723;DHT22;30451;48.638;10.624;2023-04-01T11:36:35;20.90;48.20
44723;DHT22;30451;48.638;10.624;2023-04-01T11:41:46;21.00;47.80
44723;DHT22;30451;48.638;10.624;2023-04-01T11:44:35;21.10;47.80
44723;DHT22;30451;48.638;10.624;2023-04-01T11:50:42;21.20;47.90
44723;DHT22;30451;48.638;10.624;2023-04-01T11:53:20;21.30;47.80
44723;DHT22;30451;48.638;10.624;2023-04-01T12:04:24;21.50;47.30
44723;DHT22;30451;48.638;10.624;2023-04-01T12:36:00;22.00;46.70
44723;DHT22;30451;48.638;10.624;2023-04-01T12:49:23;22.20;46.10
44723;DHT22;30451;48.638;10.624;2023-04-01T12:52:14;22.30;46.10
44723;DHT22;30451;48.638;10.624;2023-04-01T13:00:54;22.40;45.90
44723;DHT22;30451;48.638;10.624;2023-04-01T13:03:53;22.40;45.90
44723;DHT22;30451;48.638;10.624;2023-04-01T13:06:44;22.50;45.70
44723;DHT22;30451;48.638;10.624;2023-04-01T13:20:22;22.60;45.60
44723;DHT22;30451;48.638;10.624;2023-04-01T13:28:30;22.70;45.50
44723;DHT22;30451;48.638;10.624;2023-04-01T13:31:14;22.70;45.30
44723;DHT22;30451;48.638;10.624;2023-04-01T13:37:14;22.80;45.40
44723;DHT22;30451;48.638;10.624;2023-04-01T13:39:54;22.90;46.10
44723;DHT22;30451;48.638;10.624;2023-04-01T13:42:43;22.90;45.30
44723;DHT22;30451;48.638;10.624;2023-04-01T13:45:24;22.90;45.20
44723;DHT22;30451;48.638;10.624;2023-04-01T13:50:59;22.90;45.10
44723;DHT22;30451;48.638;10.624;2023-04-01T13:56:24;23.00;44.80
44723;DHT22;30451;48.638;10.624;2023-04-01T13:59:13;23.00;44.90
44723;DHT22;30451;48.638;10.624;2023-04-01T14:01:44;23.00;44.80
44723;DHT22;30451;48.638;10.624;2023-04-01T14:13:18;23.10;44.90
44723;DHT22;30451;48.638;10.624;2023-04-01T14:16:02;23.20;45.00
44723;DHT22;30451;48.638;10.624;2023-04-01T14:24:42;23.20;44.90
44723;DHT22;30451;48.638;10.624;2023-04-01T14:35:31;23.30;44.80
44723;DHT22;30451;48.638;10.624;2023-04-01T14:38:24;23.40;44.70
44723;DHT22;30451;48.638;10.624;2023-04-01T14:49:01;23.40;44.50
44723;DHT22;30451;48.638;10.624;2023-04-01T14:56:44;23.50;44.60
44723;DHT22;30451;48.638;10.624;2023-04-01T15:02:07;23.50;44.60
44723;DHT22;30451;48.638;10.624;2023-04-01T15:04:42;23.50;44.60
44723;DHT22;30451;48.638;10.624;2023-04-01T15:24:34;23.60;44.60
44723;DHT22;30451;48.638;10.624;2023-04-01T15:37:54;23.70;44.50
44723;DHT22;30451;48.638;10.624;2023-04-01T15:43:14;23.70;44.20
44723;DHT22;30451;48.638;10.624;2023-04-01T15:46:09;23.70;44.30
44723;DHT22;30451;48.638;10.624;2023-04-01T15:51:41;23.70;44.40
44723;DHT22;30451;48.638;10.624;2023-04-01T16:00:02;23.80;44.40
44723;DHT22;30451;48.638;10.624;2023-04-01T16:11:34;23.80;44.50
44723;DHT22;30451;48.638;10.624;2023-04-01T16:23:03;23.90;44.40
44723;DHT22;30451;48.638;10.624;2023-04-01T16:28:42;23.90;44.50
44723;DHT22;30451;48.638;10.624;2023-04-01T16:31:35;23.90;44.50
44723;DHT22;30451;48.638;10.624;2023-04-01T16:42:24;23.90;44.40
44723;DHT22;30451;48.638;10.624;2023-04-01T16:44:55;23.90;44.40
44723;DHT22;30451;48.638;10.624;2023-04-01T16:47:41;23.90;44.40
44723;DHT22;30451;48.638;10.624;2023-04-01T16:50:27;23.90;44.40
44723;DHT22;30451;48.638;10.624;2023-04-01T16:53:09;23.90;44.50
44723;DHT22;30451;48.638;10.624;2023-04-01T16:55:49;23.90;44.40
44723;DHT22;30451;48.638;10.624;2023-04-01T16:58:28;23.90;44.60
44723;DHT22;30451;48.638;10.624;2023-04-01T17:01:16;23.90;44.60
44723;DHT22;30451;48.638;10.624;2023-04-01T17:03:46;23.90;44.70
44723;DHT22;30451;48.638;10.624;2023-04-01T17:11:35;23.90;44.70
44723;DHT22;30451;48.638;10.624;2023-04-01T17:22:26;23.90;44.70
44723;DHT22;30451;48.638;10.624;2023-04-01T17:44:25;23.90;44.70
44723;DHT22;30451;48.638;10.624;2023-04-01T17:58:45;23.90;44.80
44723;DHT22;30451;48.638;10.624;2023-04-01T18:06:36;23.90;44.90
44723;DHT22;30451;48.638;10.624;2023-04-01T18:14:59;23.90;44.80
44723;DHT22;30451;48.638;10.624;2023-04-01T18:20:58;23.90;44.80
44723;DHT22;30451;48.638;10.624;2023-04-01T18:26:24;23.90;44.90
44723;DHT22;30451;48.638;10.624;2023-04-01T18:31:42;23.90;44.90
44723;DHT22;30451;48.638;10.624;2023-04-01T18:37:28;23.90;44.90
44723;DHT22;30451;48.638;10.624;2023-04-01T18:40:42;23.90;44.90
44723;DHT22;30451;48.638;10.624;2023-04-01T18:43:30;23.90;44.90
44723;DHT22;30451;48.638;10.624;2023-04-01T18:56:43;23.90;45.10
44723;DHT22;30451;48.638;10.624;2023-04-01T18:59:16;23.90;45.10
44723;DHT22;30451;48.638;10.624;2023-04-01T19:01:52;23.90;45.20
44723;DHT22;30451;48.638;10.624;2023-04-01T19:04:30;23.90;45.10
44723;DHT22;30451;48.638;10.624;2023-04-01T19:07:19;23.90;45.20
44723;DHT22;30451;48.638;10.624;2023-04-01T19:09:48;23.90;45.10
44723;DHT22;30451;48.638;10.624;2023-04-01T19:12:32;23.90;45.10
44723;DHT22;30451;48.638;10.624;2023-04-01T19:26:25;23.90;45.20
44723;DHT22;30451;48.638;10.624;2023-04-01T19:37:31;23.90;45.20
44723;DHT22;30451;48.638;10.624;2023-04-01T19:45:51;23.90;45.20
44723;DHT22;30451;48.638;10.624;2023-04-01T19:54:20;23.90;45.20
44723;DHT22;30451;48.638;10.624;2023-04-01T20:04:49;23.90;45.40
44723;DHT22;30451;48.638;10.624;2023-04-01T20:07:24;23.90;45.50
44723;DHT22;30451;48.638;10.624;2023-04-01T20:10:21;23.90;45.60
44723;DHT22;30451;48.638;10.624;2023-04-01T20:13:19;23.90;45.60
44723;DHT22;30451;48.638;10.624;2023-04-01T20:15:58;23.90;45.60
44723;DHT22;30451;48.638;10.624;2023-04-01T20:18:33;23.90;45.70
44723;DHT22;30451;48.638;10.624;2023-04-01T20:21:06;23.90;45.70
44723;DHT22;30451;48.638;10.624;2023-04-01T20:26:36;23.90;45.60
44723;DHT22;30451;48.638;10.624;2023-04-01T20:37:44;23.90;45.60
44723;DHT22;30451;48.638;10.624;2023-04-01T20:40:32;23.90;45.60
44723;DHT22;30451;48.638;10.624;2023-04-01T20:51:38;23.80;45.60
44723;DHT22;30451;48.638;10.624;2023-04-01T20:57:43;23.80;45.60
44723;DHT22;30451;48.638;10.624;2023-04-01T21:00:33;23.80;45.60
44723;DHT22;30451;48.638;10.624;2023-04-01T21:05:45;23.70;45.60
44723;DHT22;30451;48.638;10.624;2023-04-01T21:09:14;23.70;45.60
44723;DHT22;30451;48.638;10.624;2023-04-01T21:11:38;23.80;45.80
44723;DHT22;30451;48.638;10.624;2023-04-01T21:14:35;23.70;45.70
44723;DHT22;30451;48.638;10.624;2023-04-01T21:25:22;23.70;45.70
44723;DHT22;30451;48.638;10.624;2023-04-01T21:36:14;23.80;45.70
44723;DHT22;30451;48.638;10.624;2023-04-01T21:41:50;23.80;45.70
44723;DHT22;30451;48.638;10.624;2023-04-01T21:47:52;23.80;45.60
44723;DHT22;30451;48.638;10.624;2023-04-01T21:56:22;23.80;45.60
44723;DHT22;30451;48.638;10.624;2023-04-01T22:10:10;23.90;45.60
44723;DHT22;30451;48.638;10.624;2023-04-01T22:21:09;23.90;45.60
44723;DHT22;30451;48.638;10.624;2023-04-01T22:29:52;23.90;45.50
44723;DHT22;30451;48.638;10.624;2023-04-01T22:38:43;23.90;45.50
44723;DHT22;30451;48.638;10.624;2023-04-01T22:43:54;23.90;45.50
44723;DHT22;30451;48.638;10.624;2023-04-01T22:49:26;23.90;45.50
44723;DHT22;30451;48.638;10.624;2023-04-01T22:54:29;23.90;45.50
44723;DHT22;30451;48.638;10.624;2023-04-01T23:02:01;23.90;45.50
44723;DHT22;30451;48.638;10.624;2023-04-01T23:04:32;23.90;45.50
44723;DHT22;30451;48.638;10.624;2023-04-01T23:07:06;23.90;45.50
44723;DHT22;30451;48.638;10.624;2023-04-01T23:09:42;23.90;46.10
44723;DHT22;30451;48.638;10.624;2023-04-01T23:12:11;23.90;45.50
44723;DHT22;30451;48.638;10.624;2023-04-01T23:14:43;23.90;45.60
44723;DHT22;30451;48.638;10.624;2023-04-01T23:33:30;24.00;45.70
44723;DHT22;30451;48.638;10.624;2023-04-01T23:36:11;24.00;45.60
44723;DHT22;30451;48.638;10.624;2023-04-01T23:38:42;24.00;45.60
44723;DHT22;30451;48.638;10.624;2023-04-01T23:41:27;24.00;45.60
44723;DHT22;30451;48.638;10.624;2023-04-01T23:44:04;24.00;45.60
44723;DHT22;30451;48.638;10.624;2023-04-01T23:46:33;24.00;45.60
44723;DHT22;30451;48.638;10.624;2023-04-01T23:49:01;24.00;45.60
44723;DHT22;30451;48.638;10.624;2023-04-01T23:51:29;24.00;45.60
44723;DHT22;30451;48.638;10.624;2023-04-01T23:56:49;24.00;45.50
44723;DHT22;30451;48.638;10.624;2023-04-01T23:59:26;24.00;45.50
